createdAt,value
2018-08-09T00:00:22.782Z,6.57
2018-08-09T00:02:51.622Z,5.63
2018-08-09T00:05:20.108Z,6.30
2018-08-09T00:07:48.639Z,6.57
2018-08-09T00:10:17.146Z,5.60
2018-08-09T00:12:45.634Z,7.43
2018-08-09T00:15:14.106Z,7.53
2018-08-09T00:17:43.098Z,7.90
2018-08-09T00:20:12.262Z,8.20
2018-08-09T00:22:40.747Z,7.97
2018-08-09T00:25:09.587Z,8.23
2018-08-09T00:27:38.083Z,8.30
2018-08-09T00:30:07.375Z,8.20
2018-08-09T00:32:35.981Z,8.17
2018-08-09T00:35:04.520Z,8.07
2018-08-09T00:37:33.011Z,7.33
2018-08-09T00:40:01.492Z,7.93
2018-08-09T00:42:30.015Z,8.17
2018-08-09T00:44:58.507Z,8.43
2018-08-09T00:47:27.020Z,8.00
2018-08-09T00:49:55.526Z,8.50
2018-08-09T00:52:24.006Z,8.60
2018-08-09T00:54:52.507Z,9.57
2018-08-09T00:57:21.022Z,9.90
2018-08-09T00:59:49.719Z,10.40
2018-08-09T01:02:18.272Z,9.30
2018-08-09T01:04:46.756Z,9.53
2018-08-09T01:07:15.266Z,8.63
2018-08-09T01:09:43.787Z,7.57
2018-08-09T01:12:12.298Z,7.33
2018-08-09T01:14:40.835Z,8.93
2018-08-09T01:17:09.718Z,8.60
2018-08-09T01:19:38.239Z,9.17
2018-08-09T01:22:07.117Z,9.50
2018-08-09T01:24:35.658Z,8.97
2018-08-09T01:27:08.250Z,9.37
2018-08-09T01:29:38.207Z,9.13
2018-08-09T01:32:06.822Z,8.83
2018-08-09T01:34:35.285Z,8.97
2018-08-09T01:37:04.253Z,8.60
2018-08-09T01:39:32.707Z,8.83
2018-08-09T01:42:12.232Z,8.80
2018-08-09T01:44:41.107Z,9.40
2018-08-09T01:47:09.607Z,9.03
2018-08-09T01:49:38.088Z,9.83
2018-08-09T01:52:06.855Z,9.40
2018-08-09T01:54:35.347Z,9.37
2018-08-09T01:57:03.886Z,9.00
2018-08-09T01:59:32.375Z,9.77
2018-08-09T02:02:01.243Z,10.63
2018-08-09T02:04:29.754Z,10.87
2018-08-09T02:06:58.272Z,11.00
2018-08-09T02:09:32.637Z,11.50
2018-08-09T02:12:02.516Z,11.53
2018-08-09T02:14:32.225Z,11.07
2018-08-09T02:17:01.249Z,11.33
2018-08-09T02:19:30.183Z,11.20
2018-08-09T02:21:58.742Z,10.43
2018-08-09T02:24:27.256Z,10.47
2018-08-09T02:26:55.778Z,9.70
2018-08-09T02:29:24.253Z,10.80
2018-08-09T02:31:52.819Z,11.83
2018-08-09T02:34:21.505Z,11.63
2018-08-09T02:36:50.366Z,11.07
2018-08-09T02:39:18.860Z,11.37
2018-08-09T02:41:47.398Z,10.93
2018-08-09T02:44:15.911Z,11.57
2018-08-09T02:46:44.465Z,10.73
2018-08-09T02:49:23.667Z,10.87
2018-08-09T02:51:52.499Z,11.33
2018-08-09T02:54:22.135Z,10.67
2018-08-09T02:56:50.622Z,10.47
2018-08-09T02:59:19.816Z,11.00
2018-08-09T03:01:48.681Z,11.97
2018-08-09T03:04:17.140Z,10.87
2018-08-09T03:06:45.637Z,9.87
2018-08-09T03:09:14.476Z,10.93
2018-08-09T03:11:43.687Z,11.27
2018-08-09T03:14:12.393Z,10.57
2018-08-09T03:16:40.884Z,10.20
2018-08-09T03:19:09.375Z,10.23
2018-08-09T03:21:37.858Z,9.97
2018-08-09T03:24:06.384Z,10.57
2018-08-09T03:26:34.879Z,10.63
2018-08-09T03:29:03.771Z,10.43
2018-08-09T03:31:32.298Z,10.20
2018-08-09T03:34:00.806Z,11.00
2018-08-09T03:36:29.279Z,11.60
2018-08-09T03:38:57.991Z,11.33
2018-08-09T03:41:26.474Z,10.57
2018-08-09T03:43:54.961Z,10.20
2018-08-09T03:46:23.451Z,11.33
2018-08-09T03:48:51.942Z,11.70
2018-08-09T03:51:20.438Z,11.07
2018-08-09T03:53:48.999Z,11.87
2018-08-09T03:56:17.475Z,13.97
2018-08-09T03:58:45.983Z,14.77
2018-08-09T04:01:14.471Z,13.97
2018-08-09T04:03:42.975Z,14.60
2018-08-09T04:06:11.495Z,14.43
2018-08-09T04:08:39.998Z,14.47
2018-08-09T04:11:08.511Z,13.77
2018-08-09T04:13:36.987Z,13.13
2018-08-09T04:16:05.798Z,12.83
2018-08-09T04:18:34.283Z,12.87
2018-08-09T04:21:02.795Z,14.33
2018-08-09T04:23:31.654Z,15.37
2018-08-09T04:26:00.161Z,15.77
2018-08-09T04:28:28.831Z,14.27
2018-08-09T04:30:57.295Z,13.57
2018-08-09T04:33:25.787Z,14.50
2018-08-09T04:35:54.691Z,14.87
2018-08-09T04:38:23.182Z,13.33
2018-08-09T04:40:51.675Z,15.03
2018-08-09T04:43:20.194Z,13.60
2018-08-09T04:45:48.687Z,12.77
2018-08-09T04:48:17.269Z,13.67
2018-08-09T04:50:45.793Z,14.07
2018-08-09T04:53:14.354Z,15.57
2018-08-09T04:55:42.821Z,14.53
2018-08-09T04:58:11.441Z,15.07
2018-08-09T05:00:40.074Z,14.67
2018-08-09T05:03:08.915Z,14.13
2018-08-09T05:05:37.398Z,15.37
2018-08-09T05:08:05.894Z,14.43
2018-08-09T05:10:34.375Z,14.03
2018-08-09T05:13:02.874Z,12.10
2018-08-09T05:15:31.636Z,12.67
2018-08-09T05:18:00.173Z,13.47
2018-08-09T05:20:29.009Z,14.17
2018-08-09T05:22:57.558Z,18.73
2018-08-09T05:25:26.121Z,20.57
2018-08-09T05:27:54.623Z,16.93
2018-08-09T05:30:23.335Z,16.90
2018-08-09T05:32:51.835Z,15.63
2018-08-09T05:35:21.296Z,15.27
2018-08-09T05:37:49.780Z,15.23
2018-08-09T05:40:18.303Z,17.33
2018-08-09T05:42:46.938Z,17.10
2018-08-09T05:45:15.515Z,20.63
2018-08-09T05:47:44.179Z,20.30
2018-08-09T05:50:12.913Z,20.57
2018-08-09T05:52:41.420Z,20.27
2018-08-09T05:55:10.127Z,19.83
2018-08-09T05:57:38.617Z,20.13
2018-08-09T06:00:08.234Z,19.33
2018-08-09T06:02:36.991Z,18.90
2018-08-09T06:05:05.981Z,17.50
2018-08-09T06:07:34.687Z,17.70
2018-08-09T06:10:03.999Z,17.90
2018-08-09T06:12:33.464Z,17.33
2018-08-09T06:15:01.957Z,16.70
2018-08-09T06:17:30.907Z,16.90
2018-08-09T06:19:59.798Z,16.73
2018-08-09T06:22:28.330Z,18.07
2018-08-09T06:24:57.162Z,16.70
2018-08-09T06:27:25.746Z,17.20
2018-08-09T06:29:54.305Z,17.00
2018-08-09T06:32:22.791Z,16.93
2018-08-09T06:34:51.577Z,17.87
2018-08-09T06:37:20.442Z,16.67
2018-08-09T06:39:48.999Z,17.70
2018-08-09T06:42:17.961Z,17.77
2018-08-09T06:44:46.470Z,19.47
2018-08-09T06:47:16.042Z,18.57
2018-08-09T06:49:44.551Z,18.63
2018-08-09T06:52:13.031Z,18.87
2018-08-09T06:54:41.625Z,18.53
2018-08-09T06:57:10.129Z,20.00
2018-08-09T06:59:38.736Z,19.40
2018-08-09T07:02:07.258Z,18.57
2018-08-09T07:04:35.755Z,17.83
2018-08-09T07:07:04.538Z,18.20
2018-08-09T07:09:33.200Z,18.40
2018-08-09T07:12:01.713Z,18.67
2018-08-09T07:14:30.235Z,19.23
2018-08-09T07:16:58.720Z,19.80
2018-08-09T07:19:27.192Z,20.93
2018-08-09T07:21:56.442Z,19.90
2018-08-09T07:24:25.486Z,20.00
2018-08-09T07:26:54.010Z,18.53
2018-08-09T07:29:22.938Z,20.00
2018-08-09T07:31:51.554Z,21.07
2018-08-09T07:34:21.869Z,18.57
2018-08-09T07:36:50.444Z,18.87
2018-08-09T07:39:19.019Z,18.83
2018-08-09T07:41:47.710Z,20.33
2018-08-09T07:44:16.243Z,18.00
2018-08-09T07:46:44.995Z,18.97
2018-08-09T07:49:13.716Z,19.70
2018-08-09T07:51:42.219Z,18.27
2018-08-09T07:54:10.796Z,16.67
2018-08-09T07:56:39.707Z,14.53
2018-08-09T07:59:08.567Z,13.60
2018-08-09T08:01:37.074Z,14.17
2018-08-09T08:04:06.271Z,13.93
2018-08-09T08:06:34.868Z,12.07
2018-08-09T08:09:03.530Z,11.23
2018-08-09T08:11:32.180Z,10.90
2018-08-09T08:14:00.674Z,10.93
2018-08-09T08:16:29.191Z,9.47
2018-08-09T08:18:58.048Z,8.87
2018-08-09T08:21:26.605Z,9.17
2018-08-09T08:23:55.127Z,8.90
2018-08-09T08:26:24.065Z,8.30
2018-08-09T08:28:52.704Z,7.73
2018-08-09T08:31:23.718Z,8.17
2018-08-09T08:33:52.207Z,7.63
2018-08-09T08:36:20.776Z,7.73
2018-08-09T08:38:49.271Z,8.33
2018-08-09T08:41:17.799Z,8.80
2018-08-09T08:43:46.474Z,9.17
2018-08-09T08:46:15.563Z,9.97
2018-08-09T08:48:44.088Z,10.20
2018-08-09T08:51:12.823Z,11.33
2018-08-09T08:53:41.367Z,11.37
2018-08-09T08:56:09.934Z,12.33
2018-08-09T08:58:39.019Z,13.60
2018-08-09T09:01:07.587Z,13.67
2018-08-09T09:03:36.426Z,14.27
2018-08-09T09:06:05.036Z,15.03
2018-08-09T09:08:33.684Z,14.37
2018-08-09T09:11:03.256Z,14.93
2018-08-09T09:13:31.736Z,14.90
2018-08-09T09:16:00.243Z,13.97
2018-08-09T09:18:28.731Z,15.77
2018-08-09T09:20:57.226Z,14.83
2018-08-09T09:23:25.726Z,16.23
2018-08-09T09:25:54.264Z,15.93
2018-08-09T09:28:22.751Z,14.87
2018-08-09T09:30:51.262Z,14.90
2018-08-09T09:33:19.794Z,16.33
2018-08-09T09:35:48.272Z,15.30
2018-08-09T09:38:16.811Z,16.33
2018-08-09T09:40:45.343Z,15.00
2018-08-09T09:43:13.871Z,13.90
2018-08-09T09:45:42.367Z,14.37
2018-08-09T09:48:10.991Z,15.27
2018-08-09T09:50:39.794Z,14.00
2018-08-09T09:53:08.316Z,13.43
2018-08-09T09:55:36.805Z,13.23
2018-08-09T09:58:05.750Z,12.80
2018-08-09T10:00:39.607Z,12.43
2018-08-09T10:03:08.134Z,12.73
2018-08-09T10:05:36.667Z,12.80
2018-08-09T10:08:05.199Z,12.70
2018-08-09T10:10:33.720Z,12.97
2018-08-09T10:13:02.436Z,12.70
2018-08-09T10:15:30.921Z,13.03
2018-08-09T10:17:59.419Z,11.03
2018-08-09T10:20:28.272Z,11.70
2018-08-09T10:22:56.809Z,12.63
2018-08-09T10:25:25.379Z,12.67
2018-08-09T10:27:53.898Z,11.97
2018-08-09T10:30:22.367Z,11.97
2018-08-09T10:32:50.913Z,11.27
2018-08-09T10:35:19.514Z,10.80
2018-08-09T10:37:48.028Z,10.70
2018-08-09T10:40:16.524Z,11.70
2018-08-09T10:42:45.053Z,10.30
2018-08-09T10:45:14.115Z,9.13
2018-08-09T10:47:42.607Z,7.83
2018-08-09T10:50:11.106Z,8.67
2018-08-09T10:52:39.599Z,8.60
2018-08-09T10:55:08.104Z,8.53
2018-08-09T10:57:36.627Z,9.43
2018-08-09T11:00:07.779Z,7.77
2018-08-09T11:02:36.300Z,7.50
2018-08-09T11:05:05.484Z,9.07
2018-08-09T11:07:34.028Z,9.50
2018-08-09T11:10:02.905Z,8.33
2018-08-09T11:12:31.410Z,7.23
2018-08-09T11:15:00.349Z,8.97
2018-08-09T11:17:29.010Z,8.87
2018-08-09T11:19:57.859Z,8.40
2018-08-09T11:22:26.412Z,7.70
2018-08-09T11:24:54.904Z,7.60
2018-08-09T11:27:23.441Z,6.50
2018-08-09T11:29:51.932Z,7.93
2018-08-09T11:32:20.451Z,7.40
2018-08-09T11:34:48.950Z,7.30
2018-08-09T11:37:17.487Z,8.13
2018-08-09T11:39:46.050Z,8.10
2018-08-09T11:42:14.700Z,7.40
2018-08-09T11:44:43.207Z,7.63
2018-08-09T11:47:11.702Z,7.37
2018-08-09T11:49:40.287Z,7.87
2018-08-09T11:52:08.766Z,7.03
2018-08-09T11:54:37.607Z,6.73
2018-08-09T11:57:06.121Z,6.90
2018-08-09T11:59:34.816Z,8.23
2018-08-09T12:02:03.680Z,7.77
2018-08-09T12:04:32.285Z,9.67
2018-08-09T12:07:00.948Z,8.40
2018-08-09T12:09:29.532Z,8.47
2018-08-09T12:11:58.206Z,9.63
2018-08-09T12:14:26.758Z,9.70
2018-08-09T12:16:55.287Z,8.03
2018-08-09T12:19:23.820Z,8.10
2018-08-09T12:21:52.699Z,9.67
2018-08-09T12:24:21.266Z,9.57
2018-08-09T12:26:50.305Z,9.07
2018-08-09T12:29:18.819Z,9.70
2018-08-09T12:31:47.338Z,10.00
2018-08-09T12:34:16.266Z,9.67
2018-08-09T12:36:44.932Z,9.67
2018-08-09T12:39:13.888Z,9.67
2018-08-09T12:41:42.686Z,10.80
2018-08-09T12:44:11.471Z,10.30
2018-08-09T12:46:40.023Z,9.80
2018-08-09T12:49:08.935Z,11.03
2018-08-09T12:51:37.441Z,10.07
2018-08-09T12:54:05.994Z,10.30
2018-08-09T12:56:34.540Z,10.50
2018-08-09T12:59:03.456Z,12.43
2018-08-09T13:01:31.968Z,11.00
2018-08-09T13:04:00.481Z,11.33
2018-08-09T13:06:29.005Z,11.40
2018-08-09T13:08:57.905Z,10.90
2018-08-09T13:11:26.427Z,11.53
2018-08-09T13:13:55.346Z,13.30
2018-08-09T13:16:23.877Z,12.43
2018-08-09T13:18:52.491Z,12.00
2018-08-09T13:21:21.003Z,11.10
2018-08-09T13:23:50.218Z,10.37
2018-08-09T13:26:18.723Z,10.90
2018-08-09T13:28:47.819Z,10.83
2018-08-09T13:31:16.396Z,11.23
2018-08-09T13:33:45.304Z,11.27
2018-08-09T13:36:14.052Z,11.43
2018-08-09T13:38:42.604Z,13.87
2018-08-09T13:41:11.488Z,12.80
2018-08-09T13:43:39.991Z,11.37
2018-08-09T13:46:08.595Z,11.17
2018-08-09T13:48:37.439Z,12.47
2018-08-09T13:51:06.314Z,11.17
2018-08-09T13:53:35.168Z,10.50
2018-08-09T13:56:03.770Z,10.57
2018-08-09T13:58:32.285Z,10.17
2018-08-09T14:01:01.023Z,10.77
2018-08-09T14:03:30.035Z,10.20
2018-08-09T14:05:58.935Z,10.20
2018-08-09T14:08:27.463Z,10.90
2018-08-09T14:10:56.501Z,10.20
2018-08-09T14:13:25.811Z,12.13
2018-08-09T14:15:55.114Z,11.27
2018-08-09T14:18:24.059Z,11.53
2018-08-09T14:20:52.672Z,12.40
2018-08-09T14:23:21.168Z,13.80
2018-08-09T14:25:49.975Z,11.90
2018-08-09T14:28:18.782Z,11.97
2018-08-09T14:30:48.861Z,12.60
2018-08-09T14:33:17.388Z,15.63
2018-08-09T14:35:46.316Z,19.23
2018-08-09T14:38:15.406Z,18.37
2018-08-09T14:40:44.231Z,19.50
2018-08-09T14:43:13.734Z,20.77
2018-08-09T14:45:42.280Z,23.00
2018-08-09T14:48:10.847Z,23.23
2018-08-09T14:50:39.438Z,21.07
2018-08-09T14:53:08.148Z,20.27
2018-08-09T14:55:36.695Z,16.57
2018-08-09T14:58:05.630Z,18.30
2018-08-09T15:00:34.197Z,14.13
2018-08-09T15:03:03.112Z,10.03
2018-08-09T15:05:31.637Z,9.07
2018-08-09T15:08:00.539Z,8.40
2018-08-09T15:10:29.687Z,9.23
2018-08-09T15:12:58.212Z,7.57
2018-08-09T15:15:26.846Z,6.87
2018-08-09T15:17:55.408Z,7.90
2018-08-09T15:20:24.206Z,7.83
2018-08-09T15:22:52.839Z,6.20
2018-08-09T15:25:21.823Z,6.70
2018-08-09T15:27:50.863Z,6.70
2018-08-09T15:30:20.648Z,5.20
2018-08-09T15:32:49.660Z,6.40
2018-08-09T15:35:18.258Z,5.20
2018-08-09T15:37:46.812Z,5.67
2018-08-09T15:40:29.622Z,4.90
2018-08-09T15:42:58.108Z,5.30
2018-08-09T15:45:26.990Z,4.80
2018-08-09T15:47:56.605Z,5.03
2018-08-09T15:50:25.730Z,4.57
2018-08-09T15:52:54.851Z,5.30
2018-08-09T15:55:23.423Z,5.03
2018-08-09T15:57:52.278Z,4.90
2018-08-09T16:00:22.701Z,4.40
2018-08-09T16:02:51.666Z,4.23
2018-08-09T16:05:20.813Z,4.83
2018-08-09T16:07:49.335Z,4.30
2018-08-09T16:10:18.911Z,5.57
2018-08-09T16:12:48.043Z,5.10
2018-08-09T16:15:17.848Z,4.60
2018-08-09T16:17:47.535Z,4.83
2018-08-09T16:20:16.235Z,4.53
2018-08-09T16:22:47.166Z,4.60
2018-08-09T16:25:18.106Z,5.33
2018-08-09T16:27:47.854Z,4.70
2018-08-09T16:30:20.571Z,4.63
2018-08-09T16:32:49.200Z,4.67
2018-08-09T16:35:18.978Z,5.30
2018-08-09T16:37:48.451Z,5.00
2018-08-09T16:40:22.191Z,5.03
2018-08-09T16:42:50.940Z,5.03
2018-08-09T16:45:20.648Z,4.90
2018-08-09T16:47:50.396Z,5.80
2018-08-09T16:50:21.087Z,4.03
2018-08-09T16:52:50.652Z,5.27
2018-08-09T16:55:20.290Z,5.53
2018-08-09T16:57:48.960Z,5.00
2018-08-09T17:00:20.634Z,5.40
2018-08-09T17:02:49.536Z,5.37
2018-08-09T17:05:21.279Z,5.37
2018-08-09T17:07:50.091Z,4.83
2018-08-09T17:10:20.143Z,4.73
2018-08-09T17:12:48.811Z,5.27
2018-08-09T17:15:20.142Z,5.50
2018-08-09T17:17:48.964Z,5.30
2018-08-09T17:20:19.585Z,6.27
2018-08-09T17:22:48.255Z,4.93
2018-08-09T17:25:16.870Z,4.93
2018-08-09T17:27:46.601Z,5.27
2018-08-09T17:30:16.791Z,5.10
2018-08-09T17:32:45.396Z,4.97
2018-08-09T17:35:15.395Z,4.37
2018-08-09T17:37:44.545Z,4.20
2018-08-09T17:40:17.986Z,4.57
2018-08-09T17:42:47.616Z,4.47
2018-08-09T17:45:16.731Z,5.10
2018-08-09T17:47:46.019Z,4.53
2018-08-09T17:50:14.507Z,3.83
2018-08-09T17:52:43.264Z,4.30
2018-08-09T17:55:13.528Z,4.43
2018-08-09T17:57:43.126Z,5.20
2018-08-09T18:00:29.524Z,8.00
2018-08-09T18:02:58.218Z,7.10
2018-08-09T18:05:26.726Z,5.83
2018-08-09T18:07:55.719Z,8.43
2018-08-09T18:10:26.451Z,8.27
2018-08-09T18:12:55.168Z,10.43
2018-08-09T18:15:24.822Z,6.17
2018-08-09T18:17:54.473Z,5.53
2018-08-09T18:20:26.514Z,5.67
2018-08-09T18:22:55.099Z,5.30
2018-08-09T18:25:23.966Z,3.67
2018-08-09T18:27:52.579Z,5.63
2018-08-09T18:30:21.470Z,3.97
2018-08-09T18:32:50.140Z,4.63
2018-08-09T18:35:19.595Z,3.83
2018-08-09T18:37:49.523Z,3.70
2018-08-09T18:40:21.899Z,3.77
2018-08-09T18:42:50.525Z,3.53
2018-08-09T18:45:19.403Z,3.50
2018-08-09T18:47:47.987Z,3.17
2018-08-09T18:50:19.581Z,3.57
2018-08-09T18:52:48.166Z,3.67
2018-08-09T18:55:17.938Z,3.50
2018-08-09T18:57:46.827Z,3.40
2018-08-09T19:00:17.951Z,3.63
2018-08-09T19:02:47.144Z,3.97
2018-08-09T19:05:16.217Z,3.73
2018-08-09T19:07:45.215Z,4.20
2018-08-09T19:10:20.607Z,3.63
2018-08-09T19:12:49.561Z,3.40
2018-08-09T19:15:18.777Z,3.53
2018-08-09T19:17:48.192Z,3.60
2018-08-09T19:20:22.711Z,3.57
2018-08-09T19:22:51.435Z,4.10
2018-08-09T19:25:57.414Z,3.50
2018-08-09T19:28:26.009Z,4.40
2018-08-09T19:30:54.759Z,4.60
2018-08-09T19:33:23.406Z,3.97
2018-08-09T19:35:52.310Z,4.60
2018-08-09T19:38:21.300Z,4.97
2018-08-09T19:40:49.799Z,4.70
2018-08-09T19:43:18.405Z,4.80
2018-08-09T19:45:47.418Z,4.90
2018-08-09T19:48:15.965Z,4.43
2018-08-09T19:50:45.008Z,5.03
2018-08-09T19:53:13.580Z,5.20
2018-08-09T19:55:42.095Z,4.33
2018-08-09T19:58:10.914Z,3.87
2018-08-09T20:00:39.610Z,3.70
2018-08-09T20:03:08.507Z,3.73
2018-08-09T20:05:37.060Z,3.60
2018-08-09T20:08:05.857Z,3.23
2018-08-09T20:10:34.517Z,3.10
2018-08-09T20:13:03.550Z,2.80
2018-08-09T20:15:32.310Z,2.90
2018-08-09T20:18:00.931Z,3.00
2018-08-09T20:20:29.489Z,2.90
2018-08-09T20:22:58.075Z,3.10
2018-08-09T20:25:27.382Z,2.70
2018-08-09T20:27:55.883Z,2.53
2018-08-09T20:30:24.715Z,2.87
2018-08-09T20:34:18.036Z,3.03
2018-08-09T20:36:46.845Z,2.83
2018-08-09T20:39:15.428Z,3.20
2018-08-09T20:41:44.040Z,3.07
2018-08-09T20:44:12.652Z,2.80
2018-08-09T20:46:41.170Z,3.77
2018-08-09T20:49:09.717Z,3.70
2018-08-09T20:51:39.034Z,4.10
2018-08-09T20:54:08.002Z,3.60
2018-08-09T20:56:37.095Z,4.23
2018-08-09T20:59:05.655Z,3.80
2018-08-09T21:01:34.871Z,4.20
2018-08-09T21:04:04.360Z,3.97
2018-08-09T21:06:33.870Z,3.53
2018-08-09T21:09:02.700Z,3.43
2018-08-09T21:11:31.343Z,2.97
2018-08-09T21:14:00.606Z,3.30
2018-08-09T21:16:29.690Z,3.30
2018-08-09T21:18:58.380Z,2.50
2018-08-09T21:21:27.283Z,2.23
2018-08-09T21:23:58.355Z,2.80
2018-08-09T21:26:27.566Z,2.30
2018-08-09T21:28:56.902Z,2.60
2018-08-09T21:31:25.994Z,2.57
2018-08-09T21:33:55.520Z,2.53
2018-08-09T21:36:24.397Z,2.20
2018-08-09T21:38:52.889Z,2.87
2018-08-09T21:41:21.454Z,2.37
2018-08-09T21:43:50.001Z,2.37
2018-08-09T21:46:18.558Z,2.40
2018-08-09T21:48:47.107Z,2.23
2018-08-09T21:51:15.674Z,2.20
2018-08-09T21:53:44.207Z,1.93
2018-08-09T21:56:12.738Z,2.17
2018-08-09T21:58:41.605Z,2.40
2018-08-09T22:01:10.642Z,2.40
2018-08-09T22:03:39.660Z,2.23
2018-08-09T22:06:13.826Z,2.50
2018-08-09T22:08:47.719Z,2.80
2018-08-09T22:11:21.584Z,2.40
2018-08-09T22:13:56.763Z,2.50
2018-08-09T22:16:30.647Z,2.83
2018-08-09T22:19:04.371Z,2.33
2018-08-09T22:21:38.602Z,2.20
2018-08-09T22:24:08.404Z,1.80
2018-08-09T22:26:37.039Z,2.07
2018-08-09T22:29:05.692Z,1.70
2018-08-09T22:31:34.242Z,1.53
2018-08-09T22:34:03.246Z,1.90
2018-08-09T22:36:32.025Z,1.80
2018-08-09T22:39:00.864Z,1.77
2018-08-09T22:41:29.470Z,1.57
2018-08-09T22:43:58.390Z,1.50
2018-08-09T22:46:27.137Z,1.67
2018-08-09T22:48:55.666Z,1.60
2018-08-09T22:51:24.195Z,1.90
2018-08-09T22:53:52.702Z,1.60
2018-08-09T22:56:21.246Z,1.80
2018-08-09T22:58:49.779Z,1.80
2018-08-09T23:01:18.331Z,1.80
2018-08-09T23:03:47.029Z,1.83
2018-08-09T23:06:15.908Z,2.00
2018-08-09T23:08:44.455Z,1.90
2018-08-09T23:11:12.979Z,1.80
2018-08-09T23:13:41.483Z,1.40
2018-08-09T23:16:10.355Z,1.93
2018-08-09T23:18:39.254Z,2.20
2018-08-09T23:21:07.802Z,1.90
2018-08-09T23:23:36.295Z,1.83
2018-08-09T23:26:04.980Z,1.87
2018-08-09T23:28:33.516Z,2.23
2018-08-09T23:31:02.380Z,2.30
2018-08-09T23:33:30.892Z,2.10
2018-08-09T23:35:59.807Z,2.30
2018-08-09T23:38:28.313Z,2.13
2018-08-09T23:40:56.846Z,2.50
2018-08-09T23:43:25.404Z,2.40
2018-08-09T23:45:53.955Z,2.33
2018-08-09T23:48:22.510Z,2.40
2018-08-09T23:50:51.075Z,2.20
2018-08-09T23:53:19.615Z,2.73
2018-08-09T23:55:48.496Z,3.30
2018-08-09T23:58:17.362Z,3.80
